Time;durP1;ratioP1;P1;durP2;ratioP2;P2;SDS_P1;SDS_P2;PMS_P1;PMS_P2;Temp;Humidity;BMP_temperature;BMP_pressure;BME280_temperature;BME280_humidity;BME280_pressure;Samples;Min_cycle;Max_cycle;Signal;HPM_P1;HPM_P2
2022/04/18 00:00:33;;;;;;;19.67;17.10;;;;;;;;;;2097087;28;20173;-57
2022/04/18 00:01:34;;;;;;;17.50;15.70;;;;;;;;;;2099224;28;20174;-56
2022/04/18 00:02:35;;;;;;;16.00;14.40;;;;;;;;;;2090073;28;20231;-59
2022/04/18 00:03:35;;;;;;;17.17;15.18;;;;;;;;;;2081901;28;20230;-58
2022/04/18 00:04:35;;;;;;;16.73;14.87;;;;;;;;;;2088746;28;20194;-59
2022/04/18 00:05:36;;;;;;;16.47;14.67;;;;;;;;;;2089708;28;20334;-57
2022/04/18 00:06:36;;;;;;;18.38;15.90;;;;;;;;;;2099196;28;20167;-58
2022/04/18 00:07:36;;;;;;;22.88;15.05;;;;;;;;;;2096364;28;20179;-61
2022/04/18 00:08:37;;;;;;;17.67;15.77;;;;;;;;;;2098972;28;20167;-58
2022/04/18 00:09:37;;;;;;;18.38;15.25;;;;;;;;;;2098290;28;20182;-58
2022/04/18 00:10:37;;;;;;;17.20;15.27;;;;;;;;;;2095839;28;20639;-59
2022/04/18 00:11:37;;;;;;;16.47;14.80;;;;;;;;;;2098955;28;20161;-60
2022/04/18 00:12:38;;;;;;;17.65;15.30;;;;;;;;;;2098597;28;20163;-59
2022/04/18 00:13:38;;;;;;;16.00;14.37;;;;;;;;;;2099295;28;20163;-57
2022/04/18 00:14:38;;;;;;;18.27;15.45;;;;;;;;;;2090065;28;20190;-61
2022/04/18 00:15:39;;;;;;;16.97;15.17;;;;;;;;;;2082711;28;20161;-59
2022/04/18 00:16:39;;;;;;;15.50;13.87;;;;;;;;;;2090540;28;20221;-57
2022/04/18 00:17:39;;;;;;;18.30;15.48;;;;;;;;;;2099638;28;20186;-59
2022/04/18 00:18:40;;;;;;;17.27;14.70;;;;;;;;;;2099382;28;20197;-58
2022/04/18 00:19:41;;;;;;;16.30;14.60;;;;;;;;;;2099676;28;20167;-59
2022/04/18 00:20:41;;;;;;;16.90;15.17;;;;;;;;;;2099696;28;20172;-61
2022/04/18 00:21:41;;;;;;;16.30;14.70;;;;;;;;;;2090588;28;20655;-58
2022/04/18 00:22:42;;;;;;;17.20;14.43;;;;;;;;;;2090558;28;20223;-59
2022/04/18 00:23:42;;;;;;;17.03;15.20;;;;;;;;;;2090709;28;20599;-60
2022/04/18 00:24:42;;;;;;;17.42;14.27;;;;;;;;;;2090175;28;20634;-61
2022/04/18 00:25:43;;;;;;;17.97;15.77;;;;;;;;;;2099320;28;20163;-61
2022/04/18 00:26:43;;;;;;;17.60;14.67;;;;;;;;;;2090247;28;20565;-59
2022/04/18 00:27:44;;;;;;;16.27;14.57;;;;;;;;;;2082171;28;20168;-57
2022/04/18 00:28:44;;;;;;;19.47;15.70;;;;;;;;;;2082116;28;20250;-59
2022/04/18 00:29:44;;;;;;;17.17;15.37;;;;;;;;;;2090236;28;20191;-58
2022/04/18 00:30:45;;;;;;;19.37;14.97;;;;;;;;;;2099137;28;20167;-56
2022/04/18 00:31:45;;;;;;;17.35;15.63;;;;;;;;;;2081944;28;20203;-60
2022/04/18 00:32:45;;;;;;;16.33;14.40;;;;;;;;;;2082148;28;20230;-60
2022/04/18 00:33:46;;;;;;;16.40;14.63;;;;;;;;;;2090228;28;20203;-57
2022/04/18 00:34:46;;;;;;;16.93;15.13;;;;;;;;;;2089968;28;20159;-60
2022/04/18 00:35:47;;;;;;;16.97;14.93;;;;;;;;;;2082073;28;20239;-56
2022/04/18 00:36:47;;;;;;;17.50;15.73;;;;;;;;;;2082185;28;20624;-58
2022/04/18 00:37:47;;;;;;;17.60;15.50;;;;;;;;;;2082007;28;20164;-58
2022/04/18 00:38:47;;;;;;;15.90;14.30;;;;;;;;;;2090073;28;20630;-54
2022/04/18 00:39:48;;;;;;;18.10;14.93;;;;;;;;;;2080879;28;20168;-60
2022/04/18 00:40:48;;;;;;;18.57;16.50;;;;;;;;;;2082983;28;20271;-57
2022/04/18 00:41:49;;;;;;;17.17;14.43;;;;;;;;;;2083703;28;20245;-60
2022/04/18 00:42:50;;;;;;;16.67;14.97;;;;;;;;;;2089778;28;20171;-57
2022/04/18 00:43:51;;;;;;;17.07;15.27;;;;;;;;;;2096924;28;20182;-60
2022/04/18 00:44:51;;;;;;;16.93;15.23;;;;;;;;;;2092234;28;20651;-56
2022/04/18 00:45:51;;;;;;;19.37;15.23;;;;;;;;;;2089014;28;20179;-60
2022/04/18 00:46:51;;;;;;;15.53;13.93;;;;;;;;;;2087237;28;20207;-58
2022/04/18 00:47:52;;;;;;;17.90;15.67;;;;;;;;;;2087178;28;20335;-58
2022/04/18 00:48:53;;;;;;;16.37;14.40;;;;;;;;;;2092668;28;20225;-58
2022/04/18 00:49:53;;;;;;;15.93;14.23;;;;;;;;;;2089537;28;20191;-60
2022/04/18 00:50:53;;;;;;;16.77;14.37;;;;;;;;;;2089374;28;20172;-60
2022/04/18 00:51:54;;;;;;;16.43;14.47;;;;;;;;;;2098790;28;20288;-59
2022/04/18 00:52:55;;;;;;;17.10;14.73;;;;;;;;;;2089376;28;20644;-58
2022/04/18 00:53:56;;;;;;;14.63;13.33;;;;;;;;;;2081678;28;20684;-57
2022/04/18 00:54:58;;;;;;;15.30;13.70;;;;;;;;;;2081215;28;20239;-56
2022/04/18 00:55:59;;;;;;;17.40;13.77;;;;;;;;;;2082232;28;20176;-58
2022/04/18 00:56:59;;;;;;;15.20;13.70;;;;;;;;;;2080995;28;20184;-59
2022/04/18 00:58:00;;;;;;;16.10;13.90;;;;;;;;;;2088822;28;20175;-61
2022/04/18 00:59:01;;;;;;;15.50;13.90;;;;;;;;;;2089989;28;20269;-62
2022/04/18 01:00:01;;;;;;;16.30;13.27;;;;;;;;;;2082037;28;20255;-57
2022/04/18 01:01:01;;;;;;;15.67;14.03;;;;;;;;;;2070058;28;20389;-58
2022/04/18 01:02:02;;;;;;;15.40;13.63;;;;;;;;;;2082315;28;20695;-59
2022/04/18 01:03:02;;;;;;;15.00;13.50;;;;;;;;;;2081436;28;20184;-58
2022/04/18 01:04:03;;;;;;;14.60;13.07;;;;;;;;;;2080612;28;20549;-59
2022/04/18 01:05:04;;;;;;;14.73;12.70;;;;;;;;;;2080951;28;20180;-60
2022/04/18 01:06:04;;;;;;;17.73;13.73;;;;;;;;;;2086468;28;20181;-58
2022/04/18 01:07:04;;;;;;;15.43;13.83;;;;;;;;;;2084993;28;20312;-61
2022/04/18 01:08:05;;;;;;;14.97;13.47;;;;;;;;;;2089834;28;20282;-60
2022/04/18 01:09:06;;;;;;;14.87;13.47;;;;;;;;;;2089515;28;20266;-59
2022/04/18 01:10:07;;;;;;;14.43;12.93;;;;;;;;;;2081247;28;20187;-59
2022/04/18 01:11:09;;;;;;;15.43;13.80;;;;;;;;;;2082013;28;20172;-59
2022/04/18 01:12:30;;;;;;;15.17;13.63;;;;;;;;;;2064736;28;20197;-58
2022/04/18 01:13:43;;;;;;;15.33;13.53;;;;;;;;;;2089560;28;20194;-60
2022/04/18 01:14:56;;;;;;;17.30;13.37;;;;;;;;;;2069858;28;20224;-59
2022/04/18 01:16:19;;;;;;;15.53;12.83;;;;;;;;;;2078008;28;20557;-58
2022/04/18 01:17:39;;;;;;;14.30;12.80;;;;;;;;;;2079570;28;20164;-60
2022/04/18 01:18:58;;;;;;;18.53;13.03;;;;;;;;;;2087447;28;20211;-58
2022/04/18 01:20:30;;;;;;;14.63;13.13;;;;;;;;;;2089593;28;20618;-55
2022/04/18 01:21:55;;;;;;;14.90;13.13;;;;;;;;;;2080394;28;20215;-58
2022/04/18 01:23:18;;;;;;;15.07;13.17;;;;;;;;;;2092065;28;20198;-59
2022/04/18 01:29:49;;;;;;;14.47;13.07;;;;;;;;;;2084758;28;20207;-60
2022/04/18 01:30:49;;;;;;;14.90;13.40;;;;;;;;;;2089604;28;20619;-61
2022/04/18 01:31:51;;;;;;;16.37;13.17;;;;;;;;;;2080839;28;20357;-59
2022/04/18 01:32:51;;;;;;;15.37;13.47;;;;;;;;;;2075627;28;20215;-58
2022/04/18 01:33:53;;;;;;;15.83;13.17;;;;;;;;;;2088870;28;20175;-57
2022/04/18 01:34:53;;;;;;;14.13;12.40;;;;;;;;;;2080687;28;20183;-58
2022/04/18 01:35:54;;;;;;;15.00;13.40;;;;;;;;;;2080903;28;20668;-60
2022/04/18 01:36:55;;;;;;;14.27;12.83;;;;;;;;;;2087131;28;20172;-58
2022/04/18 01:37:55;;;;;;;14.93;13.37;;;;;;;;;;2080787;28;20234;-59
2022/04/18 01:38:55;;;;;;;15.33;13.87;;;;;;;;;;2081189;28;20266;-54
2022/04/18 01:39:56;;;;;;;14.40;12.90;;;;;;;;;;2077888;28;20990;-59
2022/04/18 01:40:56;;;;;;;15.30;13.67;;;;;;;;;;2078425;28;20178;-59
2022/04/18 01:41:57;;;;;;;16.30;12.57;;;;;;;;;;2080937;28;20173;-60
2022/04/18 01:42:57;;;;;;;14.97;13.47;;;;;;;;;;2081488;28;20172;-59
2022/04/18 01:43:57;;;;;;;15.27;13.77;;;;;;;;;;2080078;28;20191;-55
2022/04/18 01:45:00;;;;;;;15.47;13.97;;;;;;;;;;2080908;28;20319;-57
2022/04/18 01:46:00;;;;;;;16.83;15.03;;;;;;;;;;2089124;28;20278;-62
2022/04/18 01:47:02;;;;;;;14.43;13.03;;;;;;;;;;2081002;28;20645;-61
2022/04/18 01:48:02;;;;;;;15.07;13.50;;;;;;;;;;2081213;28;20203;-60
2022/04/18 01:49:03;;;;;;;16.40;13.87;;;;;;;;;;2084333;28;20299;-60
2022/04/18 01:50:04;;;;;;;16.20;14.43;;;;;;;;;;2080219;28;20224;-56
2022/04/18 01:51:05;;;;;;;14.90;13.50;;;;;;;;;;2077396;28;20649;-60
2022/04/18 01:52:07;;;;;;;16.50;14.80;;;;;;;;;;2080100;28;20653;-61
2022/04/18 01:53:07;;;;;;;15.93;14.20;;;;;;;;;;2080915;28;20176;-59
2022/04/18 01:54:07;;;;;;;14.33;12.93;;;;;;;;;;2081045;28;20585;-58
2022/04/18 01:55:08;;;;;;;14.30;12.80;;;;;;;;;;2081416;28;20228;-58
2022/04/18 01:56:09;;;;;;;15.83;14.17;;;;;;;;;;2080724;28;20635;-60
2022/04/18 01:57:11;;;;;;;14.73;13.30;;;;;;;;;;2080831;28;20525;-56
2022/04/18 01:58:12;;;;;;;15.57;13.80;;;;;;;;;;2080641;28;20259;-57
2022/04/18 01:59:12;;;;;;;14.23;12.93;;;;;;;;;;2080502;28;20196;-55
2022/04/18 02:00:13;;;;;;;15.53;13.93;;;;;;;;;;2080568;28;20259;-57
2022/04/18 02:01:17;;;;;;;16.70;13.93;;;;;;;;;;2081115;28;20763;-57
2022/04/18 02:02:18;;;;;;;14.70;13.27;;;;;;;;;;2088850;28;20178;-58
2022/04/18 02:03:18;;;;;;;13.13;11.83;;;;;;;;;;2089165;28;20186;-57
2022/04/18 02:04:19;;;;;;;14.80;13.30;;;;;;;;;;2080448;28;20180;-58
2022/04/18 02:05:19;;;;;;;14.60;12.60;;;;;;;;;;2081202;28;20214;-59
2022/04/18 02:06:21;;;;;;;13.40;12.20;;;;;;;;;;2081507;28;20182;-56
2022/04/18 02:07:21;;;;;;;15.80;13.00;;;;;;;;;;2080441;28;20190;-58
2022/04/18 02:08:26;;;;;;;14.07;12.63;;;;;;;;;;2088626;28;20644;-58
2022/04/18 02:09:27;;;;;;;14.07;12.50;;;;;;;;;;2098168;28;20186;-55
2022/04/18 02:10:28;;;;;;;15.93;12.87;;;;;;;;;;2088987;28;20566;-59
2022/04/18 02:11:29;;;;;;;13.50;12.17;;;;;;;;;;2080716;28;20207;-58
2022/04/18 02:12:32;;;;;;;13.73;12.30;;;;;;;;;;2080701;28;20172;-54
2022/04/18 02:13:36;;;;;;;14.20;12.70;;;;;;;;;;2080272;28;20378;-59
2022/04/18 02:14:40;;;;;;;13.53;12.23;;;;;;;;;;2081467;28;20168;-57
2022/04/18 02:15:42;;;;;;;14.00;12.63;;;;;;;;;;2081257;28;20255;-60
2022/04/18 02:16:43;;;;;;;13.80;12.30;;;;;;;;;;2089083;28;20159;-60
2022/04/18 02:17:43;;;;;;;15.03;13.17;;;;;;;;;;2080877;28;20238;-57
2022/04/18 02:18:44;;;;;;;13.63;12.23;;;;;;;;;;2081384;28;20227;-57
2022/04/18 02:19:45;;;;;;;13.53;12.23;;;;;;;;;;2081354;28;20625;-56
2022/04/18 02:20:45;;;;;;;14.13;11.90;;;;;;;;;;2089696;28;20172;-57
2022/04/18 02:21:45;;;;;;;13.10;11.70;;;;;;;;;;2089415;28;20266;-61
2022/04/18 02:22:46;;;;;;;13.37;12.17;;;;;;;;;;2089702;28;20163;-58
2022/04/18 02:23:46;;;;;;;13.07;11.87;;;;;;;;;;2098556;28;20178;-59
2022/04/18 02:24:47;;;;;;;13.47;11.83;;;;;;;;;;2098301;28;20198;-59
2022/04/18 02:25:47;;;;;;;14.23;11.77;;;;;;;;;;2089510;28;20179;-59
2022/04/18 02:26:49;;;;;;;14.27;12.83;;;;;;;;;;2081580;28;20169;-62
2022/04/18 02:27:51;;;;;;;13.90;12.50;;;;;;;;;;2081308;28;21084;-60
2022/04/18 02:28:52;;;;;;;16.87;13.40;;;;;;;;;;2081592;28;20200;-59
2022/04/18 02:29:52;;;;;;;13.10;11.90;;;;;;;;;;2081231;28;20202;-59
2022/04/18 02:30:52;;;;;;;14.23;12.83;;;;;;;;;;2081488;28;20554;-60
2022/04/18 02:33:13;;;;;;;13.47;12.07;;;;;;;;;;2083829;28;20195;-58
2022/04/18 02:34:13;;;;;;;13.87;12.37;;;;;;;;;;2089145;28;20192;-61
2022/04/18 02:35:15;;;;;;;13.50;12.10;;;;;;;;;;2081240;28;20172;-57
2022/04/18 02:36:15;;;;;;;14.20;12.23;;;;;;;;;;2081206;28;20164;-58
2022/04/18 02:37:15;;;;;;;13.80;12.50;;;;;;;;;;2089436;28;20369;-59
2022/04/18 02:38:17;;;;;;;13.67;12.37;;;;;;;;;;2089279;28;20180;-59
2022/04/18 02:39:19;;;;;;;12.87;11.57;;;;;;;;;;2088429;28;20203;-59
2022/04/18 02:40:20;;;;;;;13.83;12.43;;;;;;;;;;2079849;28;20315;-58
2022/04/18 02:41:20;;;;;;;13.57;12.27;;;;;;;;;;2080430;28;20267;-57
2022/04/18 02:42:21;;;;;;;13.37;12.07;;;;;;;;;;2088437;28;20583;-59
2022/04/18 02:43:22;;;;;;;12.73;11.53;;;;;;;;;;2078744;28;20184;-58
2022/04/18 02:44:30;;;;;;;14.47;13.03;;;;;;;;;;2072996;28;20267;-60
2022/04/18 02:45:31;;;;;;;13.53;12.23;;;;;;;;;;2080866;28;20192;-58
2022/04/18 02:46:43;;;;;;;13.97;12.60;;;;;;;;;;2083275;28;20195;-56
2022/04/18 02:47:44;;;;;;;13.60;12.30;;;;;;;;;;2097487;28;20222;-59
2022/04/18 02:48:46;;;;;;;14.17;12.00;;;;;;;;;;2097554;28;20269;-56
2022/04/18 02:49:50;;;;;;;15.83;12.37;;;;;;;;;;2088403;28;20167;-58
2022/04/18 02:50:51;;;;;;;13.73;12.43;;;;;;;;;;2088171;28;20298;-60
2022/04/18 02:51:56;;;;;;;14.33;12.60;;;;;;;;;;2081175;28;20175;-56
2022/04/18 02:52:57;;;;;;;14.67;12.47;;;;;;;;;;2080038;28;20667;-55
2022/04/18 02:54:09;;;;;;;13.93;12.47;;;;;;;;;;2081669;28;20188;-59
2022/04/18 02:55:11;;;;;;;13.97;12.57;;;;;;;;;;2080074;28;20567;-62
2022/04/18 02:56:12;;;;;;;14.37;12.60;;;;;;;;;;2077549;28;20174;-59
2022/04/18 02:57:18;;;;;;;12.90;11.70;;;;;;;;;;2081247;28;20181;-59
2022/04/18 02:58:18;;;;;;;13.83;12.40;;;;;;;;;;2088601;28;20202;-59
2022/04/18 02:59:19;;;;;;;14.50;12.93;;;;;;;;;;2080545;28;20217;-59
2022/04/18 03:00:20;;;;;;;14.27;12.73;;;;;;;;;;2080476;28;20184;-56
2022/04/18 03:01:23;;;;;;;14.27;12.50;;;;;;;;;;2080061;28;20247;-60
2022/04/18 03:02:24;;;;;;;14.67;13.13;;;;;;;;;;2087485;28;20237;-61
2022/04/18 03:03:25;;;;;;;13.20;11.90;;;;;;;;;;2080427;28;20269;-59
2022/04/18 03:04:25;;;;;;;15.00;12.20;;;;;;;;;;2079496;28;20176;-61
2022/04/18 03:05:25;;;;;;;13.43;12.13;;;;;;;;;;2089255;28;20180;-58
2022/04/18 03:06:26;;;;;;;13.70;12.27;;;;;;;;;;2080392;28;20186;-60
2022/04/18 03:07:26;;;;;;;13.37;11.40;;;;;;;;;;2072002;28;20208;-60
2022/04/18 03:08:27;;;;;;;15.40;12.30;;;;;;;;;;2071487;28;20196;-59
2022/04/18 03:09:28;;;;;;;12.90;11.37;;;;;;;;;;2080111;28;20214;-56
2022/04/18 03:12:01;;;;;;;13.47;11.70;;;;;;;;;;2066188;28;20186;-58
2022/04/18 03:13:02;;;;;;;13.77;12.47;;;;;;;;;;2084653;28;20173;-58
2022/04/18 03:14:02;;;;;;;13.83;12.53;;;;;;;;;;2079993;28;20565;-57
2022/04/18 03:15:10;;;;;;;13.27;11.87;;;;;;;;;;2085352;28;20207;-59
2022/04/18 03:16:11;;;;;;;13.10;11.90;;;;;;;;;;2080378;28;20560;-58
2022/04/18 03:17:12;;;;;;;12.73;11.53;;;;;;;;;;2080879;28;20187;-60
2022/04/18 03:18:12;;;;;;;13.90;12.47;;;;;;;;;;2074724;28;20256;-58
2022/04/18 03:19:14;;;;;;;13.33;12.03;;;;;;;;;;2077399;28;20192;-57
2022/04/18 03:20:25;;;;;;;13.90;12.47;;;;;;;;;;2080573;28;20672;-58
2022/04/18 03:21:25;;;;;;;13.17;11.77;;;;;;;;;;2080160;28;20330;-58
2022/04/18 03:22:30;;;;;;;12.77;11.47;;;;;;;;;;2080164;28;20207;-59
2022/04/18 03:23:36;;;;;;;14.83;12.33;;;;;;;;;;2074688;28;20223;-59
2022/04/18 03:25:06;;;;;;;12.80;11.47;;;;;;;;;;2056099;28;20181;-60
2022/04/18 03:26:08;;;;;;;12.70;11.40;;;;;;;;;;2061837;28;20658;-58
2022/04/18 03:27:17;;;;;;;13.00;11.67;;;;;;;;;;2080471;28;20168;-59
2022/04/18 03:28:17;;;;;;;13.33;11.57;;;;;;;;;;2072666;28;20232;-58
2022/04/18 03:29:18;;;;;;;13.13;11.77;;;;;;;;;;2080798;28;20235;-59
2022/04/18 03:30:19;;;;;;;13.80;11.87;;;;;;;;;;2088905;28;20207;-56
2022/04/18 03:31:21;;;;;;;13.03;11.67;;;;;;;;;;2089274;28;20171;-59
2022/04/18 03:32:22;;;;;;;13.10;11.80;;;;;;;;;;2080622;28;20199;-61
2022/04/18 03:33:23;;;;;;;13.17;11.83;;;;;;;;;;2080945;28;20364;-56
2022/04/18 03:34:23;;;;;;;13.70;12.30;;;;;;;;;;2088581;28;20537;-60
2022/04/18 03:35:24;;;;;;;12.07;10.93;;;;;;;;;;2089118;28;20171;-57
2022/04/18 03:40:21;;;;;;;13.20;11.90;;;;;;;;;;2075043;28;20181;-58
2022/04/18 03:41:22;;;;;;;14.33;12.23;;;;;;;;;;2072659;28;20692;-56
2022/04/18 03:42:29;;;;;;;13.77;12.40;;;;;;;;;;2080961;28;20168;-58
2022/04/18 03:43:30;;;;;;;13.67;12.33;;;;;;;;;;2080954;28;20192;-58
2022/04/18 03:44:30;;;;;;;13.27;11.90;;;;;;;;;;2080551;28;20263;-59
2022/04/18 03:45:32;;;;;;;13.93;12.43;;;;;;;;;;2079747;28;20175;-55
2022/04/18 03:46:32;;;;;;;13.93;12.30;;;;;;;;;;2087285;28;20575;-58
2022/04/18 03:47:33;;;;;;;13.30;11.87;;;;;;;;;;2098082;28;20171;-58
2022/04/18 03:48:34;;;;;;;13.60;12.27;;;;;;;;;;2088709;28;20195;-58
2022/04/18 03:49:34;;;;;;;13.13;11.93;;;;;;;;;;2080490;28;20234;-58
2022/04/18 03:50:35;;;;;;;16.13;12.97;;;;;;;;;;2077521;28;20314;-55
2022/04/18 03:51:36;;;;;;;15.53;13.07;;;;;;;;;;2089083;28;20189;-57
2022/04/18 03:52:37;;;;;;;14.20;11.87;;;;;;;;;;2080313;28;20176;-59
2022/04/18 03:53:38;;;;;;;13.50;12.03;;;;;;;;;;2072435;28;20165;-59
2022/04/18 03:54:43;;;;;;;12.53;11.33;;;;;;;;;;2088153;28;20598;-60
2022/04/18 03:55:45;;;;;;;12.87;11.20;;;;;;;;;;2088568;28;20172;-56
2022/04/18 03:56:55;;;;;;;13.40;12.10;;;;;;;;;;2076480;28;20223;-57
2022/04/18 03:58:08;;;;;;;12.93;11.57;;;;;;;;;;2072001;28;20176;-58
2022/04/18 03:59:09;;;;;;;13.43;12.03;;;;;;;;;;2070037;28;20188;-59
2022/04/18 04:00:27;;;;;;;13.40;11.63;;;;;;;;;;2088484;28;20183;-57
2022/04/18 04:01:28;;;;;;;12.43;11.23;;;;;;;;;;2087858;28;20175;-58
2022/04/18 04:02:28;;;;;;;12.00;10.67;;;;;;;;;;2080166;28;20246;-59
2022/04/18 04:03:29;;;;;;;13.27;11.87;;;;;;;;;;2079715;28;20176;-51
2022/04/18 04:04:29;;;;;;;13.00;11.47;;;;;;;;;;2071294;28;20180;-58
2022/04/18 04:05:33;;;;;;;13.03;11.70;;;;;;;;;;2073307;28;20692;-59
2022/04/18 04:06:34;;;;;;;14.13;12.67;;;;;;;;;;2080732;28;20176;-55
2022/04/18 04:07:35;;;;;;;13.43;12.03;;;;;;;;;;2080340;28;20183;-59
2022/04/18 04:08:50;;;;;;;11.70;10.50;;;;;;;;;;2075991;28;20204;-58
2022/04/18 04:09:53;;;;;;;12.57;11.33;;;;;;;;;;2079477;28;20204;-59
2022/04/18 04:10:55;;;;;;;12.90;11.60;;;;;;;;;;2080093;28;20203;-55
2022/04/18 04:11:57;;;;;;;12.97;11.70;;;;;;;;;;2085895;28;20219;-57
2022/04/18 04:12:58;;;;;;;14.70;12.00;;;;;;;;;;2089033;28;20180;-59
2022/04/18 04:14:14;;;;;;;13.47;12.07;;;;;;;;;;2087920;28;20262;-57
2022/04/18 04:15:14;;;;;;;13.23;11.83;;;;;;;;;;2088636;28;20179;-60
2022/04/18 04:16:26;;;;;;;13.47;12.13;;;;;;;;;;2083789;28;20641;-58
2022/04/18 04:17:30;;;;;;;14.30;12.03;;;;;;;;;;2081065;28;20259;-61
2022/04/18 04:18:30;;;;;;;12.90;11.60;;;;;;;;;;2089125;28;20230;-60
2022/04/18 04:19:38;;;;;;;11.53;10.40;;;;;;;;;;2088750;28;20172;-58
2022/04/18 04:20:46;;;;;;;12.63;11.33;;;;;;;;;;2081703;28;20203;-59
2022/04/18 04:21:46;;;;;;;12.83;11.50;;;;;;;;;;2088340;28;20644;-59
2022/04/18 04:22:48;;;;;;;13.13;11.77;;;;;;;;;;2088759;28;20640;-59
2022/04/18 04:24:19;;;;;;;13.20;11.83;;;;;;;;;;2061069;28;20177;-59
2022/04/18 04:25:19;;;;;;;12.80;11.43;;;;;;;;;;2055999;28;20217;-61
2022/04/18 04:26:20;;;;;;;13.40;12.00;;;;;;;;;;2077816;28;20195;-59
2022/04/18 04:27:24;;;;;;;12.87;11.57;;;;;;;;;;2081279;28;20176;-61
2022/04/18 04:28:24;;;;;;;11.90;10.70;;;;;;;;;;2081108;28;20614;-60
2022/04/18 04:29:24;;;;;;;13.30;11.77;;;;;;;;;;2080566;28;20172;-59
2022/04/18 04:30:43;;;;;;;12.73;11.00;;;;;;;;;;2076086;28;20192;-56
2022/04/18 04:31:43;;;;;;;13.40;11.53;;;;;;;;;;2080748;28;20680;-57
2022/04/18 04:32:44;;;;;;;12.97;11.77;;;;;;;;;;2082369;28;20226;-57
2022/04/18 04:33:44;;;;;;;13.07;11.67;;;;;;;;;;2082024;28;20576;-57
2022/04/18 04:34:44;;;;;;;13.90;11.80;;;;;;;;;;2082066;28;20172;-61
2022/04/18 04:35:59;;;;;;;11.97;10.77;;;;;;;;;;2084482;28;20250;-57
2022/04/18 04:36:59;;;;;;;12.73;11.43;;;;;;;;;;2090766;28;20663;-60
2022/04/18 04:37:59;;;;;;;12.00;10.83;;;;;;;;;;2074586;28;20180;-60
2022/04/18 04:39:25;;;;;;;10.70;9.80;;;;;;;;;;2090100;23;20285;-57
2022/04/18 04:40:27;;;;;;;14.20;11.63;;;;;;;;;;2077848;28;20661;-58
2022/04/18 04:41:27;;;;;;;14.17;11.70;;;;;;;;;;2082098;28;20176;-56
2022/04/18 04:42:33;;;;;;;12.53;11.37;;;;;;;;;;2082820;28;20283;-57
2022/04/18 04:43:33;;;;;;;12.47;11.30;;;;;;;;;;2088120;28;20595;-58
2022/04/18 04:44:37;;;;;;;12.10;10.80;;;;;;;;;;2090552;28;20630;-54
2022/04/18 04:45:40;;;;;;;12.30;11.07;;;;;;;;;;2090466;28;20183;-56
2022/04/18 04:46:53;;;;;;;12.93;11.50;;;;;;;;;;2083816;28;20153;-55
2022/04/18 04:47:55;;;;;;;11.17;10.13;;;;;;;;;;2079072;28;20264;-57
2022/04/18 04:48:56;;;;;;;13.40;11.10;;;;;;;;;;2074062;28;20689;-57
2022/04/18 04:49:57;;;;;;;11.70;10.50;;;;;;;;;;2073797;28;20196;-59
2022/04/18 04:51:00;;;;;;;12.30;11.07;;;;;;;;;;2082355;28;20223;-56
2022/04/18 04:52:00;;;;;;;12.33;11.00;;;;;;;;;;2082282;28;20180;-56
2022/04/18 04:53:01;;;;;;;12.30;11.10;;;;;;;;;;2082402;28;20180;-55
2022/04/18 04:54:02;;;;;;;11.77;10.70;;;;;;;;;;2073484;28;20219;-61
2022/04/18 04:55:08;;;;;;;12.10;11.00;;;;;;;;;;2082298;28;20182;-55
2022/04/18 04:56:17;;;;;;;12.30;11.10;;;;;;;;;;2084974;28;20247;-56
2022/04/18 04:57:17;;;;;;;11.50;10.43;;;;;;;;;;2090497;28;20172;-54
2022/04/18 04:58:47;;;;;;;12.37;11.17;;;;;;;;;;2077682;28;20187;-57
2022/04/18 04:59:47;;;;;;;12.90;11.20;;;;;;;;;;2090387;28;20191;-57
2022/04/18 05:00:47;;;;;;;11.77;10.53;;;;;;;;;;2090524;28;20230;-58
2022/04/18 05:02:03;;;;;;;12.13;10.93;;;;;;;;;;2090411;28;20160;-57
2022/04/18 05:03:03;;;;;;;12.23;11.03;;;;;;;;;;2082348;28;20180;-55
2022/04/18 05:04:04;;;;;;;11.00;9.97;;;;;;;;;;2089869;28;20632;-57
2022/04/18 05:05:08;;;;;;;12.90;10.87;;;;;;;;;;2082527;28;20183;-57
2022/04/18 05:06:08;;;;;;;11.57;10.47;;;;;;;;;;2082292;28;20215;-56
2022/04/18 05:07:13;;;;;;;12.73;11.53;;;;;;;;;;2082671;28;20195;-54
2022/04/18 05:08:32;;;;;;;12.33;10.57;;;;;;;;;;2092954;28;20266;-57
2022/04/18 05:09:33;;;;;;;11.43;10.30;;;;;;;;;;2090303;28;20191;-56
2022/04/18 05:10:33;;;;;;;12.80;11.20;;;;;;;;;;2081881;28;20239;-55
2022/04/18 05:11:40;;;;;;;12.47;10.77;;;;;;;;;;2074806;28;20641;-54
2022/04/18 05:12:45;;;;;;;12.00;10.70;;;;;;;;;;2075822;28;20172;-55
2022/04/18 05:13:46;;;;;;;13.90;11.30;;;;;;;;;;2076718;28;20169;-56
2022/04/18 05:14:49;;;;;;;12.20;10.93;;;;;;;;;;2073582;28;20674;-54
2022/04/18 05:16:01;;;;;;;12.50;11.20;;;;;;;;;;2075415;28;20176;-54
2022/04/18 05:17:14;;;;;;;13.10;11.37;;;;;;;;;;2075389;28;20165;-58
2022/04/18 05:18:21;;;;;;;12.07;10.87;;;;;;;;;;2082822;28;20184;-56
2022/04/18 05:19:22;;;;;;;13.00;11.33;;;;;;;;;;2081500;28;20275;-56
2022/04/18 05:20:27;;;;;;;13.70;10.67;;;;;;;;;;2081923;28;20180;-59
2022/04/18 05:21:29;;;;;;;15.03;10.93;;;;;;;;;;2081452;28;20168;-58
2022/04/18 05:22:34;;;;;;;12.77;11.57;;;;;;;;;;2074148;28;20171;-57
2022/04/18 05:23:34;;;;;;;12.07;10.53;;;;;;;;;;2073379;28;20188;-56
2022/04/18 05:24:35;;;;;;;11.47;10.50;;;;;;;;;;2073022;28;20565;-56
2022/04/18 05:25:37;;;;;;;12.27;11.00;;;;;;;;;;2081571;28;20168;-56
2022/04/18 05:26:37;;;;;;;11.43;10.23;;;;;;;;;;2073642;28;20196;-56
2022/04/18 05:27:37;;;;;;;11.60;10.40;;;;;;;;;;2073536;28;20259;-54
2022/04/18 05:28:44;;;;;;;11.67;10.47;;;;;;;;;;2074345;28;20509;-58
2022/04/18 05:29:44;;;;;;;12.47;11.17;;;;;;;;;;2081827;28;20271;-58
2022/04/18 05:30:44;;;;;;;11.57;10.23;;;;;;;;;;2081995;28;20249;-58
2022/04/18 05:31:45;;;;;;;11.77;10.67;;;;;;;;;;2065358;28;20169;-58
2022/04/18 05:32:45;;;;;;;11.73;10.53;;;;;;;;;;2073642;28;20638;-54
2022/04/18 05:33:45;;;;;;;12.97;11.67;;;;;;;;;;2073546;28;20577;-54
2022/04/18 05:35:05;;;;;;;11.27;10.00;;;;;;;;;;2076030;28;20176;-55
2022/04/18 05:36:06;;;;;;;11.17;10.07;;;;;;;;;;2081454;28;20275;-56
2022/04/18 05:37:09;;;;;;;13.00;10.07;;;;;;;;;;2081733;28;20231;-56
2022/04/18 05:38:32;;;;;;;12.90;10.07;;;;;;;;;;2084457;28;20179;-56
2022/04/18 05:39:36;;;;;;;11.70;9.47;;;;;;;;;;2081295;28;20203;-54
2022/04/18 05:40:36;;;;;;;11.43;10.33;;;;;;;;;;2081677;28;20187;-54
2022/04/18 05:41:37;;;;;;;11.87;10.77;;;;;;;;;;2073538;28;20219;-57
2022/04/18 05:42:38;;;;;;;11.30;10.13;;;;;;;;;;2073482;28;20268;-54
2022/04/18 05:43:42;;;;;;;12.13;10.82;;;;;;;;;;2081575;28;20204;-53
2022/04/18 05:44:44;;;;;;;11.85;10.60;;;;;;;;;;2081237;28;20660;-57
2022/04/18 05:45:44;;;;;;;11.70;10.70;;;;;;;;;;2073451;28;20227;-53
2022/04/18 05:46:52;;;;;;;13.97;12.00;;;;;;;;;;2074569;28;20192;-53
2022/04/18 05:47:53;;;;;;;11.80;10.63;;;;;;;;;;2077849;28;20169;-55
2022/04/18 05:48:55;;;;;;;12.20;10.97;;;;;;;;;;2081569;28;20184;-55
2022/04/18 05:49:55;;;;;;;12.15;10.95;;;;;;;;;;2078071;28;20267;-55
2022/04/18 05:50:56;;;;;;;12.33;11.03;;;;;;;;;;2081708;28;20251;-56
2022/04/18 05:51:59;;;;;;;11.27;9.95;;;;;;;;;;2089887;28;20700;-56
2022/04/18 05:52:59;;;;;;;12.77;10.77;;;;;;;;;;2089967;28;20289;-55
2022/04/18 05:54:29;;;;;;;11.77;10.20;;;;;;;;;;2093194;28;20206;-54
2022/04/18 05:55:35;;;;;;;11.57;10.47;;;;;;;;;;2090878;28;20168;-55
2022/04/18 05:56:40;;;;;;;11.73;10.15;;;;;;;;;;2085783;28;20523;-59
2022/04/18 05:58:01;;;;;;;11.50;10.23;;;;;;;;;;2084139;28;20183;-57
2022/04/18 05:59:02;;;;;;;11.07;9.97;;;;;;;;;;2081705;28;20664;-59
2022/04/18 06:00:17;;;;;;;11.98;9.98;;;;;;;;;;2088655;28;20546;-57
2022/04/18 06:01:28;;;;;;;11.50;9.93;;;;;;;;;;2082189;28;20176;-59
2022/04/18 06:02:29;;;;;;;10.73;9.73;;;;;;;;;;2078694;28;20172;-57
2022/04/18 06:03:34;;;;;;;12.35;10.65;;;;;;;;;;2081880;28;20188;-56
2022/04/18 06:04:35;;;;;;;11.77;10.30;;;;;;;;;;2072252;28;20195;-59
2022/04/18 06:06:14;;;;;;;11.32;10.07;;;;;;;;;;2084119;28;20221;-55
2022/04/18 06:07:14;;;;;;;13.35;10.90;;;;;;;;;;2081863;28;20184;-62
2022/04/18 06:08:15;;;;;;;11.05;9.73;;;;;;;;;;2073304;28;20713;-57
2022/04/18 06:09:23;;;;;;;11.73;10.13;;;;;;;;;;2074283;28;20220;-58
2022/04/18 06:10:23;;;;;;;11.67;10.47;;;;;;;;;;2073264;28;20288;-58
2022/04/18 06:11:33;;;;;;;11.80;10.48;;;;;;;;;;2081380;28;20179;-58
2022/04/18 06:12:45;;;;;;;11.25;10.05;;;;;;;;;;2083092;28;20164;-57
2022/04/18 06:13:46;;;;;;;11.65;10.55;;;;;;;;;;2089807;28;20243;-57
2022/04/18 06:14:47;;;;;;;11.35;10.27;;;;;;;;;;2089213;28;20501;-55
2022/04/18 06:15:52;;;;;;;11.27;10.07;;;;;;;;;;2081303;28;20247;-55
2022/04/18 06:16:52;;;;;;;12.90;10.43;;;;;;;;;;2073546;28;20169;-56
2022/04/18 06:17:56;;;;;;;10.40;9.50;;;;;;;;;;2073429;28;20802;-58
2022/04/18 06:18:56;;;;;;;10.98;9.82;;;;;;;;;;2081272;28;20171;-55
2022/04/18 06:19:57;;;;;;;10.30;9.25;;;;;;;;;;2081401;28;20625;-56
2022/04/18 06:20:57;;;;;;;11.23;9.90;;;;;;;;;;2081334;28;20613;-54